首页
METAR-TAF:

METAR-TAF

机场 :

Piney Island, 北卡罗来纳州, 美国

纬度: 35-01-20N, 经度: 076-27-45W, 海拔: 5米

当前天气观测

该预报发布于17分钟前的19:56 UTC
风速7节,风向东转东北
温度 23°C
湿度 50%
气压 1018 hPa
能見度: 16.1公里
天空无云

METAR: KNBT 151956Z AUTO 07007KT 10SM CLR 23/12 A3006 RMK AO2 SLP183 T02330117

时间: 16:13 (20:13 UTC)


TAF: 丢失

超过4000个机场的气象观测和天气预报(METAR&TAF报告)。

可查询的气象台以黄色和红色小点在地图上表示。

将鼠标移到小点上方,可查看气象台名称。

然后点击查看天气观测和预报。

如需切换地图:点击带黑十字的绿色按钮放大地图;点击带横线的绿色按钮缩小地图;或者点击绿色箭头查看邻近地区的地图。


METAR-TAF: